sensor_id;sensor_type;location;lat;lon;timestamp;temperature;humidity
20171;DHT22;10245;51.344;6.620;2024-03-08T00:01:57;4.60;71.40
20171;DHT22;10245;51.344;6.620;2024-03-08T00:04:21;4.50;71.20
20171;DHT22;10245;51.344;6.620;2024-03-08T00:06:44;4.50;71.80
20171;DHT22;10245;51.344;6.620;2024-03-08T00:09:08;4.50;72.70
20171;DHT22;10245;51.344;6.620;2024-03-08T00:11:31;4.50;72.00
20171;DHT22;10245;51.344;6.620;2024-03-08T00:13:56;4.40;71.20
20171;DHT22;10245;51.344;6.620;2024-03-08T00:16:19;4.40;70.80
20171;DHT22;10245;51.344;6.620;2024-03-08T00:18:45;4.30;71.30
20171;DHT22;10245;51.344;6.620;2024-03-08T00:21:09;4.50;72.50
20171;DHT22;10245;51.344;6.620;2024-03-08T00:23:33;4.30;72.30
20171;DHT22;10245;51.344;6.620;2024-03-08T00:25:57;4.30;71.90
20171;DHT22;10245;51.344;6.620;2024-03-08T00:28:21;4.20;72.90
20171;DHT22;10245;51.344;6.620;2024-03-08T00:30:48;4.10;72.70
20171;DHT22;10245;51.344;6.620;2024-03-08T00:33:11;4.20;72.80
20171;DHT22;10245;51.344;6.620;2024-03-08T00:35:36;4.20;72.40
20171;DHT22;10245;51.344;6.620;2024-03-08T00:37:59;4.10;72.20
20171;DHT22;10245;51.344;6.620;2024-03-08T00:40:22;4.20;71.30
20171;DHT22;10245;51.344;6.620;2024-03-08T00:42:45;4.20;72.70
20171;DHT22;10245;51.344;6.620;2024-03-08T00:45:10;4.10;72.30
20171;DHT22;10245;51.344;6.620;2024-03-08T00:47:35;4.00;72.50
20171;DHT22;10245;51.344;6.620;2024-03-08T00:49:59;4.10;72.60
20171;DHT22;10245;51.344;6.620;2024-03-08T00:52:25;4.00;73.50
20171;DHT22;10245;51.344;6.620;2024-03-08T00:54:49;4.00;73.50
20171;DHT22;10245;51.344;6.620;2024-03-08T00:57:12;4.00;73.60
20171;DHT22;10245;51.344;6.620;2024-03-08T00:59:37;3.90;73.80
20171;DHT22;10245;51.344;6.620;2024-03-08T01:02:01;3.80;74.00
20171;DHT22;10245;51.344;6.620;2024-03-08T01:04:26;3.90;74.70
20171;DHT22;10245;51.344;6.620;2024-03-08T01:06:51;3.90;74.70
20171;DHT22;10245;51.344;6.620;2024-03-08T01:09:14;3.80;74.30
20171;DHT22;10245;51.344;6.620;2024-03-08T01:11:40;3.70;75.20
20171;DHT22;10245;51.344;6.620;2024-03-08T01:14:04;3.60;75.20
20171;DHT22;10245;51.344;6.620;2024-03-08T01:16:27;3.60;75.70
20171;DHT22;10245;51.344;6.620;2024-03-08T01:18:50;3.50;76.50
20171;DHT22;10245;51.344;6.620;2024-03-08T01:21:15;3.50;75.80
20171;DHT22;10245;51.344;6.620;2024-03-08T01:23:38;3.50;76.10
20171;DHT22;10245;51.344;6.620;2024-03-08T01:26:02;3.30;76.70
20171;DHT22;10245;51.344;6.620;2024-03-08T01:28:26;3.50;76.10
20171;DHT22;10245;51.344;6.620;2024-03-08T01:30:49;3.30;76.50
20171;DHT22;10245;51.344;6.620;2024-03-08T01:33:17;3.30;77.50
20171;DHT22;10245;51.344;6.620;2024-03-08T01:35:44;3.20;77.10
20171;DHT22;10245;51.344;6.620;2024-03-08T01:38:09;3.20;76.90
20171;DHT22;10245;51.344;6.620;2024-03-08T01:40:33;3.10;77.10
20171;DHT22;10245;51.344;6.620;2024-03-08T01:43:16;3.20;76.50
20171;DHT22;10245;51.344;6.620;2024-03-08T01:45:40;3.20;76.60
20171;DHT22;10245;51.344;6.620;2024-03-08T01:48:04;3.20;75.40
20171;DHT22;10245;51.344;6.620;2024-03-08T01:50:28;3.20;75.60
20171;DHT22;10245;51.344;6.620;2024-03-08T01:52:51;3.20;76.10
20171;DHT22;10245;51.344;6.620;2024-03-08T01:55:19;3.10;76.20
20171;DHT22;10245;51.344;6.620;2024-03-08T01:57:43;3.20;76.20
20171;DHT22;10245;51.344;6.620;2024-03-08T02:00:07;3.20;76.00
20171;DHT22;10245;51.344;6.620;2024-03-08T02:02:33;3.20;75.60
20171;DHT22;10245;51.344;6.620;2024-03-08T02:04:57;3.20;75.20
20171;DHT22;10245;51.344;6.620;2024-03-08T02:07:20;3.20;75.00
20171;DHT22;10245;51.344;6.620;2024-03-08T02:09:44;3.10;75.70
20171;DHT22;10245;51.344;6.620;2024-03-08T02:12:10;3.20;75.70
20171;DHT22;10245;51.344;6.620;2024-03-08T02:14:34;3.20;76.20
20171;DHT22;10245;51.344;6.620;2024-03-08T02:17:00;3.20;75.80
20171;DHT22;10245;51.344;6.620;2024-03-08T02:19:23;3.10;75.60
20171;DHT22;10245;51.344;6.620;2024-03-08T02:21:48;3.10;76.00
20171;DHT22;10245;51.344;6.620;2024-03-08T02:24:11;3.00;75.80
20171;DHT22;10245;51.344;6.620;2024-03-08T02:26:35;3.00;75.90
20171;DHT22;10245;51.344;6.620;2024-03-08T02:29:00;3.00;76.20
20171;DHT22;10245;51.344;6.620;2024-03-08T02:31:23;3.00;75.50
20171;DHT22;10245;51.344;6.620;2024-03-08T02:33:47;3.10;75.40
20171;DHT22;10245;51.344;6.620;2024-03-08T02:36:11;3.10;75.70
20171;DHT22;10245;51.344;6.620;2024-03-08T02:38:35;3.10;75.80
20171;DHT22;10245;51.344;6.620;2024-03-08T02:40:59;3.20;75.90
20171;DHT22;10245;51.344;6.620;2024-03-08T02:43:23;3.10;76.50
20171;DHT22;10245;51.344;6.620;2024-03-08T02:45:47;3.10;76.30
20171;DHT22;10245;51.344;6.620;2024-03-08T02:48:12;3.00;75.40
20171;DHT22;10245;51.344;6.620;2024-03-08T02:50:36;3.10;75.40
20171;DHT22;10245;51.344;6.620;2024-03-08T02:52:59;3.00;75.80
20171;DHT22;10245;51.344;6.620;2024-03-08T02:55:24;3.00;75.60
20171;DHT22;10245;51.344;6.620;2024-03-08T02:57:47;3.00;75.20
20171;DHT22;10245;51.344;6.620;2024-03-08T03:00:11;3.10;75.80
20171;DHT22;10245;51.344;6.620;2024-03-08T03:02:36;3.10;76.10
20171;DHT22;10245;51.344;6.620;2024-03-08T03:04:59;3.10;76.40
20171;DHT22;10245;51.344;6.620;2024-03-08T03:07:27;3.10;75.80
20171;DHT22;10245;51.344;6.620;2024-03-08T03:09:51;3.00;76.30
20171;DHT22;10245;51.344;6.620;2024-03-08T03:12:15;3.00;75.90
20171;DHT22;10245;51.344;6.620;2024-03-08T03:14:40;2.90;76.50
20171;DHT22;10245;51.344;6.620;2024-03-08T03:17:03;3.00;76.70
20171;DHT22;10245;51.344;6.620;2024-03-08T03:19:27;3.00;77.30
20171;DHT22;10245;51.344;6.620;2024-03-08T03:21:51;2.90;77.30
20171;DHT22;10245;51.344;6.620;2024-03-08T03:24:15;2.80;77.50
20171;DHT22;10245;51.344;6.620;2024-03-08T03:26:38;2.90;76.90
20171;DHT22;10245;51.344;6.620;2024-03-08T03:29:04;2.80;77.50
20171;DHT22;10245;51.344;6.620;2024-03-08T03:31:30;2.80;77.70
20171;DHT22;10245;51.344;6.620;2024-03-08T03:33:53;2.70;78.20
20171;DHT22;10245;51.344;6.620;2024-03-08T03:36:22;2.60;78.00
20171;DHT22;10245;51.344;6.620;2024-03-08T03:38:46;2.60;78.60
20171;DHT22;10245;51.344;6.620;2024-03-08T03:41:10;2.60;79.10
20171;DHT22;10245;51.344;6.620;2024-03-08T03:43:36;2.50;78.90
20171;DHT22;10245;51.344;6.620;2024-03-08T03:46:02;2.50;79.70
20171;DHT22;10245;51.344;6.620;2024-03-08T03:48:25;2.50;78.80
20171;DHT22;10245;51.344;6.620;2024-03-08T03:50:49;2.50;79.40
20171;DHT22;10245;51.344;6.620;2024-03-08T03:53:13;2.50;78.60
20171;DHT22;10245;51.344;6.620;2024-03-08T03:55:37;2.50;79.10
20171;DHT22;10245;51.344;6.620;2024-03-08T03:58:03;2.40;79.70
20171;DHT22;10245;51.344;6.620;2024-03-08T04:00:27;2.40;79.60
20171;DHT22;10245;51.344;6.620;2024-03-08T04:02:52;2.40;79.80
20171;DHT22;10245;51.344;6.620;2024-03-08T04:05:16;2.50;79.70
20171;DHT22;10245;51.344;6.620;2024-03-08T04:07:40;2.40;79.90
20171;DHT22;10245;51.344;6.620;2024-03-08T04:10:04;2.20;80.10
20171;DHT22;10245;51.344;6.620;2024-03-08T04:12:28;2.20;80.20
20171;DHT22;10245;51.344;6.620;2024-03-08T04:14:53;2.30;80.00
20171;DHT22;10245;51.344;6.620;2024-03-08T04:17:17;2.10;79.50
20171;DHT22;10245;51.344;6.620;2024-03-08T04:19:42;2.20;80.20
20171;DHT22;10245;51.344;6.620;2024-03-08T04:22:05;2.30;79.40
20171;DHT22;10245;51.344;6.620;2024-03-08T04:24:29;2.30;80.10
20171;DHT22;10245;51.344;6.620;2024-03-08T04:26:52;2.30;80.50
20171;DHT22;10245;51.344;6.620;2024-03-08T04:29:16;2.30;80.40
20171;DHT22;10245;51.344;6.620;2024-03-08T04:31:40;2.40;79.90
20171;DHT22;10245;51.344;6.620;2024-03-08T04:34:03;2.30;79.90
20171;DHT22;10245;51.344;6.620;2024-03-08T04:36:28;2.30;80.40
20171;DHT22;10245;51.344;6.620;2024-03-08T04:38:51;2.20;80.20
20171;DHT22;10245;51.344;6.620;2024-03-08T04:41:15;2.30;80.40
20171;DHT22;10245;51.344;6.620;2024-03-08T04:43:39;2.30;80.40
20171;DHT22;10245;51.344;6.620;2024-03-08T04:46:03;2.30;80.50
20171;DHT22;10245;51.344;6.620;2024-03-08T04:48:27;2.40;79.80
20171;DHT22;10245;51.344;6.620;2024-03-08T04:50:50;2.30;80.60
20171;DHT22;10245;51.344;6.620;2024-03-08T04:53:16;2.20;80.70
20171;DHT22;10245;51.344;6.620;2024-03-08T04:55:39;2.10;81.00
20171;DHT22;10245;51.344;6.620;2024-03-08T04:58:03;2.10;81.30
20171;DHT22;10245;51.344;6.620;2024-03-08T05:00:27;2.10;81.30
20171;DHT22;10245;51.344;6.620;2024-03-08T05:02:51;2.10;81.40
20171;DHT22;10245;51.344;6.620;2024-03-08T05:05:15;2.10;81.30
20171;DHT22;10245;51.344;6.620;2024-03-08T05:07:39;2.00;81.20
20171;DHT22;10245;51.344;6.620;2024-03-08T05:10:04;2.00;81.60
20171;DHT22;10245;51.344;6.620;2024-03-08T05:12:28;2.00;81.30
20171;DHT22;10245;51.344;6.620;2024-03-08T05:14:52;2.00;81.60
20171;DHT22;10245;51.344;6.620;2024-03-08T05:17:15;2.00;81.40
20171;DHT22;10245;51.344;6.620;2024-03-08T05:19:41;2.00;81.70
20171;DHT22;10245;51.344;6.620;2024-03-08T05:22:04;1.90;81.20
20171;DHT22;10245;51.344;6.620;2024-03-08T05:24:28;1.90;81.20
20171;DHT22;10245;51.344;6.620;2024-03-08T05:26:53;1.90;81.30
20171;DHT22;10245;51.344;6.620;2024-03-08T05:29:16;1.90;81.90
20171;DHT22;10245;51.344;6.620;2024-03-08T05:31:46;1.90;81.80
20171;DHT22;10245;51.344;6.620;2024-03-08T05:34:11;1.90;82.10
20171;DHT22;10245;51.344;6.620;2024-03-08T05:36:36;1.90;82.20
20171;DHT22;10245;51.344;6.620;2024-03-08T05:38:59;1.90;81.60
20171;DHT22;10245;51.344;6.620;2024-03-08T05:41:22;1.90;81.30
20171;DHT22;10245;51.344;6.620;2024-03-08T05:43:48;1.90;81.40
20171;DHT22;10245;51.344;6.620;2024-03-08T05:46:14;1.90;81.30
20171;DHT22;10245;51.344;6.620;2024-03-08T05:48:40;1.90;81.80
20171;DHT22;10245;51.344;6.620;2024-03-08T05:51:03;1.90;81.80
20171;DHT22;10245;51.344;6.620;2024-03-08T05:53:27;1.80;81.30
20171;DHT22;10245;51.344;6.620;2024-03-08T05:55:53;1.80;81.60
20171;DHT22;10245;51.344;6.620;2024-03-08T05:58:17;1.90;81.90
20171;DHT22;10245;51.344;6.620;2024-03-08T06:00:42;1.80;81.80
20171;DHT22;10245;51.344;6.620;2024-03-08T06:03:11;1.90;82.10
20171;DHT22;10245;51.344;6.620;2024-03-08T06:05:34;1.90;81.90
20171;DHT22;10245;51.344;6.620;2024-03-08T06:07:58;1.80;82.00
20171;DHT22;10245;51.344;6.620;2024-03-08T06:10:21;1.70;82.40
20171;DHT22;10245;51.344;6.620;2024-03-08T06:12:44;1.70;82.50
20171;DHT22;10245;51.344;6.620;2024-03-08T06:15:10;1.70;82.80
20171;DHT22;10245;51.344;6.620;2024-03-08T06:17:38;1.60;82.70
20171;DHT22;10245;51.344;6.620;2024-03-08T06:20:01;1.70;82.90
20171;DHT22;10245;51.344;6.620;2024-03-08T06:22:25;1.60;82.70
20171;DHT22;10245;51.344;6.620;2024-03-08T06:24:49;1.70;82.90
20171;DHT22;10245;51.344;6.620;2024-03-08T06:27:13;1.70;82.40
20171;DHT22;10245;51.344;6.620;2024-03-08T06:29:36;1.70;82.70
20171;DHT22;10245;51.344;6.620;2024-03-08T06:31:59;1.80;82.70
20171;DHT22;10245;51.344;6.620;2024-03-08T06:34:24;1.80;82.10
20171;DHT22;10245;51.344;6.620;2024-03-08T06:36:47;1.90;82.20
20171;DHT22;10245;51.344;6.620;2024-03-08T06:39:11;2.00;82.10
20171;DHT22;10245;51.344;6.620;2024-03-08T06:41:34;2.00;81.60
20171;DHT22;10245;51.344;6.620;2024-03-08T06:43:58;2.00;81.50
20171;DHT22;10245;51.344;6.620;2024-03-08T06:46:22;2.00;81.40
20171;DHT22;10245;51.344;6.620;2024-03-08T06:48:46;2.10;80.60
20171;DHT22;10245;51.344;6.620;2024-03-08T06:51:14;2.10;81.10
20171;DHT22;10245;51.344;6.620;2024-03-08T06:53:37;2.30;81.50
20171;DHT22;10245;51.344;6.620;2024-03-08T06:56:01;2.30;81.60
20171;DHT22;10245;51.344;6.620;2024-03-08T06:58:25;2.30;81.00
20171;DHT22;10245;51.344;6.620;2024-03-08T07:00:49;2.50;81.10
20171;DHT22;10245;51.344;6.620;2024-03-08T07:03:14;2.40;80.70
20171;DHT22;10245;51.344;6.620;2024-03-08T07:05:39;2.50;80.60
20171;DHT22;10245;51.344;6.620;2024-03-08T07:08:05;2.50;80.30
20171;DHT22;10245;51.344;6.620;2024-03-08T07:10:28;2.50;80.30
20171;DHT22;10245;51.344;6.620;2024-03-08T07:12:52;2.60;80.30
20171;DHT22;10245;51.344;6.620;2024-03-08T07:15:16;2.70;80.30
20171;DHT22;10245;51.344;6.620;2024-03-08T07:17:42;2.70;80.20
20171;DHT22;10245;51.344;6.620;2024-03-08T07:20:07;2.80;79.90
20171;DHT22;10245;51.344;6.620;2024-03-08T07:22:33;2.80;80.20
20171;DHT22;10245;51.344;6.620;2024-03-08T07:25:01;2.90;79.70
20171;DHT22;10245;51.344;6.620;2024-03-08T07:27:42;3.00;79.80
20171;DHT22;10245;51.344;6.620;2024-03-08T07:30:06;3.10;79.40
20171;DHT22;10245;51.344;6.620;2024-03-08T07:32:32;3.30;79.10
20171;DHT22;10245;51.344;6.620;2024-03-08T07:34:56;3.30;78.10
20171;DHT22;10245;51.344;6.620;2024-03-08T07:37:20;3.50;78.30
20171;DHT22;10245;51.344;6.620;2024-03-08T07:39:43;3.70;78.50
20171;DHT22;10245;51.344;6.620;2024-03-08T07:42:08;4.00;78.00
20171;DHT22;10245;51.344;6.620;2024-03-08T07:44:33;4.10;78.10
20171;DHT22;10245;51.344;6.620;2024-03-08T07:46:57;4.20;77.40
20171;DHT22;10245;51.344;6.620;2024-03-08T07:49:20;4.40;77.70
20171;DHT22;10245;51.344;6.620;2024-03-08T07:51:43;4.50;76.80
20171;DHT22;10245;51.344;6.620;2024-03-08T07:54:06;4.60;75.70
20171;DHT22;10245;51.344;6.620;2024-03-08T07:56:31;4.70;75.30
20171;DHT22;10245;51.344;6.620;2024-03-08T07:58:55;5.00;74.50
20171;DHT22;10245;51.344;6.620;2024-03-08T08:01:19;5.00;74.40
20171;DHT22;10245;51.344;6.620;2024-03-08T08:03:43;5.10;73.20
20171;DHT22;10245;51.344;6.620;2024-03-08T08:06:07;5.20;73.40
20171;DHT22;10245;51.344;6.620;2024-03-08T08:08:31;5.20;72.70
20171;DHT22;10245;51.344;6.620;2024-03-08T08:10:55;5.40;71.90
20171;DHT22;10245;51.344;6.620;2024-03-08T08:13:19;5.50;72.00
20171;DHT22;10245;51.344;6.620;2024-03-08T08:15:44;5.80;71.60
20171;DHT22;10245;51.344;6.620;2024-03-08T08:18:07;5.70;70.70
20171;DHT22;10245;51.344;6.620;2024-03-08T08:20:31;5.90;71.50
20171;DHT22;10245;51.344;6.620;2024-03-08T08:22:54;6.00;70.30
20171;DHT22;10245;51.344;6.620;2024-03-08T08:25:18;6.00;69.90
20171;DHT22;10245;51.344;6.620;2024-03-08T08:27:42;6.10;69.90
20171;DHT22;10245;51.344;6.620;2024-03-08T08:30:06;6.20;69.90
20171;DHT22;10245;51.344;6.620;2024-03-08T08:32:32;6.40;69.50
20171;DHT22;10245;51.344;6.620;2024-03-08T08:34:55;6.40;68.80
20171;DHT22;10245;51.344;6.620;2024-03-08T08:37:21;6.50;69.70
20171;DHT22;10245;51.344;6.620;2024-03-08T08:39:47;6.70;69.90
20171;DHT22;10245;51.344;6.620;2024-03-08T08:42:13;6.80;68.40
20171;DHT22;10245;51.344;6.620;2024-03-08T08:44:36;7.00;69.10
20171;DHT22;10245;51.344;6.620;2024-03-08T08:47:00;7.10;68.30
20171;DHT22;10245;51.344;6.620;2024-03-08T08:49:35;7.20;67.50
20171;DHT22;10245;51.344;6.620;2024-03-08T08:51:58;7.20;67.50
20171;DHT22;10245;51.344;6.620;2024-03-08T08:54:33;7.30;67.40
20171;DHT22;10245;51.344;6.620;2024-03-08T08:56:57;7.60;67.00
20171;DHT22;10245;51.344;6.620;2024-03-08T08:59:21;7.80;67.10
20171;DHT22;10245;51.344;6.620;2024-03-08T09:01:46;7.90;64.40
20171;DHT22;10245;51.344;6.620;2024-03-08T09:04:10;7.90;64.40
20171;DHT22;10245;51.344;6.620;2024-03-08T09:06:36;7.60;64.20
20171;DHT22;10245;51.344;6.620;2024-03-08T09:08:59;7.80;63.80
20171;DHT22;10245;51.344;6.620;2024-03-08T09:11:27;7.90;62.70
20171;DHT22;10245;51.344;6.620;2024-03-08T09:13:51;8.00;62.80
20171;DHT22;10245;51.344;6.620;2024-03-08T09:16:15;8.10;63.20
20171;DHT22;10245;51.344;6.620;2024-03-08T09:18:38;8.30;61.10
20171;DHT22;10245;51.344;6.620;2024-03-08T09:21:04;8.20;62.60
20171;DHT22;10245;51.344;6.620;2024-03-08T09:23:32;8.50;61.80
20171;DHT22;10245;51.344;6.620;2024-03-08T09:25:57;8.50;61.10
20171;DHT22;10245;51.344;6.620;2024-03-08T09:28:20;8.50;60.80
20171;DHT22;10245;51.344;6.620;2024-03-08T09:30:44;8.70;60.70
20171;DHT22;10245;51.344;6.620;2024-03-08T09:33:20;8.70;60.40
20171;DHT22;10245;51.344;6.620;2024-03-08T09:35:43;8.70;60.70
20171;DHT22;10245;51.344;6.620;2024-03-08T09:38:08;8.90;60.60
20171;DHT22;10245;51.344;6.620;2024-03-08T09:40:36;9.10;60.50
20171;DHT22;10245;51.344;6.620;2024-03-08T09:42:59;9.00;57.60
20171;DHT22;10245;51.344;6.620;2024-03-08T09:45:23;9.00;58.70
20171;DHT22;10245;51.344;6.620;2024-03-08T09:47:48;9.30;59.00
20171;DHT22;10245;51.344;6.620;2024-03-08T09:50:11;9.20;57.50
20171;DHT22;10245;51.344;6.620;2024-03-08T09:52:36;9.30;57.30
20171;DHT22;10245;51.344;6.620;2024-03-08T09:55:00;9.30;55.70
20171;DHT22;10245;51.344;6.620;2024-03-08T09:57:25;9.40;57.90
20171;DHT22;10245;51.344;6.620;2024-03-08T09:59:48;9.50;56.80
20171;DHT22;10245;51.344;6.620;2024-03-08T10:02:14;9.50;58.80
20171;DHT22;10245;51.344;6.620;2024-03-08T10:04:39;9.50;57.00
20171;DHT22;10245;51.344;6.620;2024-03-08T10:07:04;9.50;56.70
20171;DHT22;10245;51.344;6.620;2024-03-08T10:09:28;9.60;55.80
20171;DHT22;10245;51.344;6.620;2024-03-08T10:11:53;9.90;55.60
20171;DHT22;10245;51.344;6.620;2024-03-08T10:14:19;9.90;56.40
20171;DHT22;10245;51.344;6.620;2024-03-08T10:16:42;9.70;55.40
20171;DHT22;10245;51.344;6.620;2024-03-08T10:19:06;9.70;56.40
20171;DHT22;10245;51.344;6.620;2024-03-08T10:21:32;9.80;55.20
20171;DHT22;10245;51.344;6.620;2024-03-08T10:23:56;9.80;54.30
20171;DHT22;10245;51.344;6.620;2024-03-08T10:26:20;9.90;55.00
20171;DHT22;10245;51.344;6.620;2024-03-08T10:28:45;10.00;53.40
20171;DHT22;10245;51.344;6.620;2024-03-08T10:31:11;10.00;53.20
20171;DHT22;10245;51.344;6.620;2024-03-08T10:33:40;10.10;54.80
20171;DHT22;10245;51.344;6.620;2024-03-08T10:36:03;10.20;54.10
20171;DHT22;10245;51.344;6.620;2024-03-08T10:38:31;10.20;53.20
20171;DHT22;10245;51.344;6.620;2024-03-08T10:40:56;10.30;53.60
20171;DHT22;10245;51.344;6.620;2024-03-08T10:43:23;10.50;55.00
20171;DHT22;10245;51.344;6.620;2024-03-08T10:45:54;10.50;53.50
20171;DHT22;10245;51.344;6.620;2024-03-08T10:48:28;10.50;54.10
20171;DHT22;10245;51.344;6.620;2024-03-08T10:51:02;10.30;52.20
20171;DHT22;10245;51.344;6.620;2024-03-08T10:53:27;10.50;51.70
20171;DHT22;10245;51.344;6.620;2024-03-08T10:55:53;10.30;52.70
20171;DHT22;10245;51.344;6.620;2024-03-08T10:58:17;10.30;53.30
20171;DHT22;10245;51.344;6.620;2024-03-08T11:00:41;10.70;51.80
20171;DHT22;10245;51.344;6.620;2024-03-08T11:03:05;10.50;52.10
20171;DHT22;10245;51.344;6.620;2024-03-08T11:05:37;10.80;50.70
20171;DHT22;10245;51.344;6.620;2024-03-08T11:08:16;10.80;50.70
20171;DHT22;10245;51.344;6.620;2024-03-08T11:10:47;11.00;49.70
20171;DHT22;10245;51.344;6.620;2024-03-08T11:13:35;10.60;48.90
20171;DHT22;10245;51.344;6.620;2024-03-08T11:15:59;10.40;48.50
20171;DHT22;10245;51.344;6.620;2024-03-08T11:18:22;10.60;50.00
20171;DHT22;10245;51.344;6.620;2024-03-08T11:20:48;10.90;50.20
20171;DHT22;10245;51.344;6.620;2024-03-08T11:23:12;10.80;48.30
20171;DHT22;10245;51.344;6.620;2024-03-08T11:25:37;10.60;50.30
20171;DHT22;10245;51.344;6.620;2024-03-08T11:28:14;10.80;50.40
20171;DHT22;10245;51.344;6.620;2024-03-08T11:30:40;10.80;49.60
20171;DHT22;10245;51.344;6.620;2024-03-08T11:33:03;10.90;48.40
20171;DHT22;10245;51.344;6.620;2024-03-08T11:35:27;11.00;49.10
20171;DHT22;10245;51.344;6.620;2024-03-08T11:37:52;11.40;49.50
20171;DHT22;10245;51.344;6.620;2024-03-08T11:40:16;11.40;49.30
20171;DHT22;10245;51.344;6.620;2024-03-08T11:42:44;11.50;49.40
20171;DHT22;10245;51.344;6.620;2024-03-08T11:45:10;11.30;47.80
20171;DHT22;10245;51.344;6.620;2024-03-08T11:47:35;11.30;48.60
20171;DHT22;10245;51.344;6.620;2024-03-08T11:50:01;11.30;47.30
20171;DHT22;10245;51.344;6.620;2024-03-08T11:52:25;11.20;47.70
20171;DHT22;10245;51.344;6.620;2024-03-08T11:54:52;11.50;46.90
20171;DHT22;10245;51.344;6.620;2024-03-08T11:57:19;11.20;47.90
20171;DHT22;10245;51.344;6.620;2024-03-08T11:59:49;11.50;48.00
20171;DHT22;10245;51.344;6.620;2024-03-08T12:02:18;11.60;47.40
20171;DHT22;10245;51.344;6.620;2024-03-08T12:04:41;11.80;47.60
20171;DHT22;10245;51.344;6.620;2024-03-08T12:07:09;11.80;46.70
20171;DHT22;10245;51.344;6.620;2024-03-08T12:09:34;11.60;46.40
20171;DHT22;10245;51.344;6.620;2024-03-08T12:12:00;11.80;46.30
20171;DHT22;10245;51.344;6.620;2024-03-08T12:14:23;12.00;47.90
20171;DHT22;10245;51.344;6.620;2024-03-08T12:16:47;11.80;46.20
20171;DHT22;10245;51.344;6.620;2024-03-08T12:19:11;11.70;45.80
20171;DHT22;10245;51.344;6.620;2024-03-08T12:21:35;12.00;47.10
20171;DHT22;10245;51.344;6.620;2024-03-08T12:24:03;12.00;45.60
20171;DHT22;10245;51.344;6.620;2024-03-08T12:26:31;11.90;46.50
20171;DHT22;10245;51.344;6.620;2024-03-08T12:29:15;11.90;47.70
20171;DHT22;10245;51.344;6.620;2024-03-08T12:31:40;11.80;46.80
20171;DHT22;10245;51.344;6.620;2024-03-08T12:34:04;12.00;48.80
20171;DHT22;10245;51.344;6.620;2024-03-08T12:36:28;12.20;47.90
20171;DHT22;10245;51.344;6.620;2024-03-08T12:38:53;12.20;45.90
20171;DHT22;10245;51.344;6.620;2024-03-08T12:41:18;12.40;45.90
20171;DHT22;10245;51.344;6.620;2024-03-08T12:43:43;12.20;46.30
20171;DHT22;10245;51.344;6.620;2024-03-08T12:46:12;12.20;45.40
20171;DHT22;10245;51.344;6.620;2024-03-08T12:48:35;12.10;46.30
20171;DHT22;10245;51.344;6.620;2024-03-08T12:51:02;12.30;46.10
20171;DHT22;10245;51.344;6.620;2024-03-08T12:53:27;12.40;47.40
20171;DHT22;10245;51.344;6.620;2024-03-08T12:55:51;12.70;45.80
20171;DHT22;10245;51.344;6.620;2024-03-08T12:58:14;12.50;45.00
20171;DHT22;10245;51.344;6.620;2024-03-08T13:00:40;12.20;45.90
20171;DHT22;10245;51.344;6.620;2024-03-08T13:03:06;12.50;45.90
20171;DHT22;10245;51.344;6.620;2024-03-08T13:05:31;12.40;45.90
20171;DHT22;10245;51.344;6.620;2024-03-08T13:07:55;12.50;46.60
20171;DHT22;10245;51.344;6.620;2024-03-08T13:10:19;12.50;45.80
20171;DHT22;10245;51.344;6.620;2024-03-08T13:12:43;12.10;45.60
20171;DHT22;10245;51.344;6.620;2024-03-08T13:15:07;12.30;45.80
20171;DHT22;10245;51.344;6.620;2024-03-08T13:17:33;12.40;45.40
20171;DHT22;10245;51.344;6.620;2024-03-08T13:19:58;12.60;44.30
20171;DHT22;10245;51.344;6.620;2024-03-08T13:22:21;12.30;44.80
20171;DHT22;10245;51.344;6.620;2024-03-08T13:24:46;12.10;44.20
20171;DHT22;10245;51.344;6.620;2024-03-08T13:27:13;12.10;44.80
20171;DHT22;10245;51.344;6.620;2024-03-08T13:29:43;12.10;44.70
20171;DHT22;10245;51.344;6.620;2024-03-08T13:32:07;12.20;45.30
20171;DHT22;10245;51.344;6.620;2024-03-08T13:34:33;12.20;44.80
20171;DHT22;10245;51.344;6.620;2024-03-08T13:36:58;12.10;44.60
20171;DHT22;10245;51.344;6.620;2024-03-08T13:39:23;12.50;46.10
20171;DHT22;10245;51.344;6.620;2024-03-08T13:41:48;12.50;45.10
20171;DHT22;10245;51.344;6.620;2024-03-08T13:44:11;12.30;46.50
20171;DHT22;10245;51.344;6.620;2024-03-08T13:46:34;12.40;45.70
20171;DHT22;10245;51.344;6.620;2024-03-08T13:49:04;12.40;44.70
20171;DHT22;10245;51.344;6.620;2024-03-08T13:51:29;12.50;45.10
20171;DHT22;10245;51.344;6.620;2024-03-08T13:53:56;12.20;44.40
20171;DHT22;10245;51.344;6.620;2024-03-08T13:56:19;12.40;45.40
20171;DHT22;10245;51.344;6.620;2024-03-08T13:58:43;12.20;45.70
20171;DHT22;10245;51.344;6.620;2024-03-08T14:01:07;12.30;44.10
20171;DHT22;10245;51.344;6.620;2024-03-08T14:03:34;12.30;44.20
20171;DHT22;10245;51.344;6.620;2024-03-08T14:05:58;12.60;44.50
20171;DHT22;10245;51.344;6.620;2024-03-08T14:08:22;12.50;44.10
20171;DHT22;10245;51.344;6.620;2024-03-08T14:10:47;12.50;44.10
20171;DHT22;10245;51.344;6.620;2024-03-08T14:13:13;12.90;44.60
20171;DHT22;10245;51.344;6.620;2024-03-08T14:15:37;12.50;45.60
20171;DHT22;10245;51.344;6.620;2024-03-08T14:18:04;13.00;44.40
20171;DHT22;10245;51.344;6.620;2024-03-08T14:20:29;13.20;44.70
20171;DHT22;10245;51.344;6.620;2024-03-08T14:22:52;13.20;42.50
20171;DHT22;10245;51.344;6.620;2024-03-08T14:25:17;12.70;42.30
20171;DHT22;10245;51.344;6.620;2024-03-08T14:27:42;12.80;44.50
20171;DHT22;10245;51.344;6.620;2024-03-08T14:30:07;12.90;44.10
20171;DHT22;10245;51.344;6.620;2024-03-08T14:32:33;12.80;44.90
20171;DHT22;10245;51.344;6.620;2024-03-08T14:35:00;12.80;43.70
20171;DHT22;10245;51.344;6.620;2024-03-08T14:37:23;13.10;43.30
20171;DHT22;10245;51.344;6.620;2024-03-08T14:39:51;13.20;43.10
20171;DHT22;10245;51.344;6.620;2024-03-08T14:42:14;12.80;43.00
20171;DHT22;10245;51.344;6.620;2024-03-08T14:44:39;13.00;44.40
20171;DHT22;10245;51.344;6.620;2024-03-08T14:47:03;13.00;43.20
20171;DHT22;10245;51.344;6.620;2024-03-08T14:49:27;13.00;44.60
20171;DHT22;10245;51.344;6.620;2024-03-08T14:51:51;12.50;42.60
20171;DHT22;10245;51.344;6.620;2024-03-08T14:54:16;12.50;44.40
20171;DHT22;10245;51.344;6.620;2024-03-08T14:56:42;12.40;43.80
20171;DHT22;10245;51.344;6.620;2024-03-08T14:59:05;12.60;44.20
20171;DHT22;10245;51.344;6.620;2024-03-08T15:01:30;12.60;43.00
20171;DHT22;10245;51.344;6.620;2024-03-08T15:03:57;12.60;43.60
20171;DHT22;10245;51.344;6.620;2024-03-08T15:06:24;12.60;42.60
20171;DHT22;10245;51.344;6.620;2024-03-08T15:08:48;12.50;43.00
20171;DHT22;10245;51.344;6.620;2024-03-08T15:11:11;12.40;42.60
20171;DHT22;10245;51.344;6.620;2024-03-08T15:13:40;12.40;43.30
20171;DHT22;10245;51.344;6.620;2024-03-08T15:16:05;12.50;42.70
20171;DHT22;10245;51.344;6.620;2024-03-08T15:18:31;12.30;43.00
20171;DHT22;10245;51.344;6.620;2024-03-08T15:20:56;12.50;43.40
20171;DHT22;10245;51.344;6.620;2024-03-08T15:23:20;12.40;45.20
20171;DHT22;10245;51.344;6.620;2024-03-08T15:25:44;12.20;44.00